Time;durP1;ratioP1;P1;durP2;ratioP2;P2;SDS_P1;SDS_P2;PMS_P1;PMS_P2;Temp;Humidity;BMP_temperature;BMP_pressure;BME280_temperature;BME280_humidity;BME280_pressure;Samples;Min_cycle;Max_cycle;Signal;HPM_P1;HPM_P2
2023/11/16 00:02:12;;;;;;;10.67;3.57;;;;;;;;;;5070241;28;20198;-54
2023/11/16 00:04:39;;;;;;;4.30;2.27;;;;;;;;;;5071715;28;20177;-55
2023/11/16 00:07:06;;;;;;;6.80;2.83;;;;;;;;;;5068325;28;20200;-55
2023/11/16 00:09:33;;;;;;;8.47;2.83;;;;;;;;;;5071319;28;20173;-54
2023/11/16 00:12:00;;;;;;;10.13;4.10;;;;;;;;;;5070115;28;20180;-54
2023/11/16 00:14:26;;;;;;;7.70;3.20;;;;;;;;;;5069631;28;20617;-54
2023/11/16 00:16:53;;;;;;;5.07;2.97;;;;;;;;;;5068406;28;20173;-54
2023/11/16 00:19:19;;;;;;;7.33;2.60;;;;;;;;;;5067229;28;20181;-55
2023/11/16 00:21:46;;;;;;;5.33;2.97;;;;;;;;;;5069803;28;20628;-55
2023/11/16 00:24:12;;;;;;;6.53;2.57;;;;;;;;;;5069330;28;20342;-55
2023/11/16 00:26:38;;;;;;;7.50;2.20;;;;;;;;;;5068819;28;20176;-55
2023/11/16 00:29:06;;;;;;;5.33;2.70;;;;;;;;;;5068893;28;20279;-55
2023/11/16 00:31:32;;;;;;;4.33;2.40;;;;;;;;;;5069668;28;20525;-54
2023/11/16 00:33:58;;;;;;;6.83;2.80;;;;;;;;;;5067625;28;20192;-54
2023/11/16 00:36:24;;;;;;;8.57;2.80;;;;;;;;;;5065728;28;20180;-54
2023/11/16 00:38:51;;;;;;;6.90;2.93;;;;;;;;;;5068728;28;20203;-54
2023/11/16 00:41:18;;;;;;;5.27;2.57;;;;;;;;;;5068512;28;20229;-54
2023/11/16 00:43:44;;;;;;;7.43;2.73;;;;;;;;;;5068457;28;20199;-54
2023/11/16 00:46:11;;;;;;;7.30;2.77;;;;;;;;;;5071131;28;20177;-54
2023/11/16 00:48:42;;;;;;;8.67;2.97;;;;;;;;;;5067421;28;20648;-55
2023/11/16 00:51:08;;;;;;;5.60;3.17;;;;;;;;;;5065880;28;20299;-54
2023/11/16 00:53:42;;;;;;;4.67;2.33;;;;;;;;;;5068255;28;20711;-54
2023/11/16 00:56:11;;;;;;;7.57;2.50;;;;;;;;;;5067638;28;20208;-55
2023/11/16 00:58:38;;;;;;;8.03;3.23;;;;;;;;;;5067390;28;20208;-55
2023/11/16 01:01:05;;;;;;;7.83;3.00;;;;;;;;;;5067695;28;20180;-54
2023/11/16 01:03:31;;;;;;;5.33;2.40;;;;;;;;;;5067646;28;20297;-55
2023/11/16 01:05:57;;;;;;;5.83;2.20;;;;;;;;;;5066326;28;20223;-54
2023/11/16 01:08:23;;;;;;;6.97;2.50;;;;;;;;;;5067806;28;20762;-54
2023/11/16 01:10:50;;;;;;;5.97;2.47;;;;;;;;;;5068250;28;20176;-54
2023/11/16 01:13:23;;;;;;;4.93;2.23;;;;;;;;;;5068817;28;20180;-54
2023/11/16 01:15:50;;;;;;;7.63;2.80;;;;;;;;;;5066682;28;20237;-54
2023/11/16 01:18:16;;;;;;;7.50;3.13;;;;;;;;;;5068016;28;20180;-54
2023/11/16 01:20:43;;;;;;;6.53;2.90;;;;;;;;;;5067208;28;21020;-55
2023/11/16 01:23:12;;;;;;;5.80;3.13;;;;;;;;;;5067851;28;20241;-54
2023/11/16 01:25:44;;;;;;;8.43;2.80;;;;;;;;;;5066647;28;20192;-55
2023/11/16 01:28:15;;;;;;;6.60;3.20;;;;;;;;;;5067558;28;20206;-55
2023/11/16 01:30:41;;;;;;;6.70;2.77;;;;;;;;;;5066933;28;20184;-54
2023/11/16 01:33:08;;;;;;;6.17;2.77;;;;;;;;;;5067659;28;20192;-55
2023/11/16 01:35:37;;;;;;;4.53;2.70;;;;;;;;;;5067302;28;20644;-53
2023/11/16 01:38:05;;;;;;;4.20;2.60;;;;;;;;;;5065946;28;20199;-54
2023/11/16 01:40:31;;;;;;;5.57;3.07;;;;;;;;;;5066554;28;20187;-54
2023/11/16 01:42:57;;;;;;;5.87;2.73;;;;;;;;;;5068135;28;20197;-54
2023/11/16 01:45:30;;;;;;;10.30;2.90;;;;;;;;;;5067038;28;20184;-55
2023/11/16 01:48:04;;;;;;;5.37;2.27;;;;;;;;;;5067893;28;20178;-54
2023/11/16 01:50:37;;;;;;;8.07;2.80;;;;;;;;;;5064966;28;20250;-53
2023/11/16 01:53:13;;;;;;;5.00;2.53;;;;;;;;;;5066472;28;20177;-54
2023/11/16 01:55:44;;;;;;;5.63;2.90;;;;;;;;;;5066383;28;20241;-54
2023/11/16 01:58:10;;;;;;;3.30;2.40;;;;;;;;;;5066704;28;20291;-55
2023/11/16 02:00:37;;;;;;;7.50;2.97;;;;;;;;;;5066953;28;20176;-54
2023/11/16 02:03:04;;;;;;;7.43;2.60;;;;;;;;;;5067115;28;20698;-54
2023/11/16 02:05:34;;;;;;;8.10;3.20;;;;;;;;;;5066474;28;20192;-54
2023/11/16 02:08:10;;;;;;;4.30;2.83;;;;;;;;;;5066921;28;20188;-54
2023/11/16 02:10:38;;;;;;;6.27;2.83;;;;;;;;;;5066624;28;20202;-54
2023/11/16 02:13:16;;;;;;;6.97;3.03;;;;;;;;;;5067175;28;20173;-54
2023/11/16 02:15:43;;;;;;;7.27;3.20;;;;;;;;;;5065992;28;20725;-54
2023/11/16 02:18:13;;;;;;;7.97;2.47;;;;;;;;;;5065568;28;20216;-55
2023/11/16 02:20:40;;;;;;;6.93;3.00;;;;;;;;;;5062356;28;20986;-54
2023/11/16 02:23:06;;;;;;;8.47;3.40;;;;;;;;;;5067126;28;20728;-55
2023/11/16 02:25:41;;;;;;;4.83;2.73;;;;;;;;;;5073002;28;20204;-55
2023/11/16 02:28:08;;;;;;;5.47;2.87;;;;;;;;;;5074318;28;20673;-55
2023/11/16 02:30:34;;;;;;;7.93;2.53;;;;;;;;;;5065289;28;20187;-55
2023/11/16 02:33:01;;;;;;;4.77;2.47;;;;;;;;;;5067613;28;20319;-54
2023/11/16 02:35:27;;;;;;;7.53;3.00;;;;;;;;;;5066944;28;20263;-55
2023/11/16 02:37:53;;;;;;;10.70;2.87;;;;;;;;;;5066168;28;20295;-55
2023/11/16 02:40:20;;;;;;;6.13;2.70;;;;;;;;;;5066937;28;20275;-55
2023/11/16 02:42:47;;;;;;;6.37;2.60;;;;;;;;;;5066317;28;20205;-55
2023/11/16 02:45:14;;;;;;;5.03;2.77;;;;;;;;;;5071906;28;20201;-55
2023/11/16 02:47:40;;;;;;;3.63;3.23;;;;;;;;;;5066987;28;20661;-55
2023/11/16 02:50:06;;;;;;;6.43;2.87;;;;;;;;;;5066952;28;20531;-55
2023/11/16 02:52:32;;;;;;;4.43;2.80;;;;;;;;;;5069938;28;20640;-55
2023/11/16 02:54:59;;;;;;;5.00;2.20;;;;;;;;;;5067793;28;20185;-55
2023/11/16 02:57:27;;;;;;;5.50;2.43;;;;;;;;;;5068749;28;20204;-55
2023/11/16 02:59:55;;;;;;;3.93;2.63;;;;;;;;;;5065300;28;20180;-55
2023/11/16 03:02:22;;;;;;;7.87;2.40;;;;;;;;;;5066240;28;20855;-55
2023/11/16 03:04:48;;;;;;;4.97;2.10;;;;;;;;;;5067051;28;20184;-55
2023/11/16 03:07:14;;;;;;;4.27;2.30;;;;;;;;;;5067596;28;20169;-55
2023/11/16 03:09:40;;;;;;;7.90;2.77;;;;;;;;;;5066360;28;20265;-55
2023/11/16 03:12:07;;;;;;;6.67;3.10;;;;;;;;;;5065728;28;20184;-55
2023/11/16 03:14:33;;;;;;;3.33;2.80;;;;;;;;;;5066650;28;20534;-55
2023/11/16 03:17:00;;;;;;;5.80;2.17;;;;;;;;;;5066352;28;20581;-55
2023/11/16 03:19:27;;;;;;;6.10;2.23;;;;;;;;;;5065048;28;21297;-55
2023/11/16 03:21:54;;;;;;;3.97;2.50;;;;;;;;;;5066512;28;20230;-55
2023/11/16 03:24:20;;;;;;;7.37;2.87;;;;;;;;;;5066455;28;20165;-55
2023/11/16 03:26:46;;;;;;;5.10;2.63;;;;;;;;;;5071282;28;20735;-55
2023/11/16 03:29:12;;;;;;;8.57;3.57;;;;;;;;;;5066891;28;20824;-56
2023/11/16 03:31:40;;;;;;;5.17;2.20;;;;;;;;;;5069858;28;20227;-55
2023/11/16 03:34:06;;;;;;;5.77;2.77;;;;;;;;;;5068400;28;20183;-56
2023/11/16 03:36:32;;;;;;;9.27;2.73;;;;;;;;;;5066665;28;20177;-56
2023/11/16 03:38:59;;;;;;;6.20;2.50;;;;;;;;;;5069274;28;20176;-56
2023/11/16 03:41:25;;;;;;;6.63;2.73;;;;;;;;;;5067450;28;20263;-56
2023/11/16 03:43:52;;;;;;;10.10;3.47;;;;;;;;;;5068259;28;20668;-56
2023/11/16 03:46:18;;;;;;;6.70;2.50;;;;;;;;;;5072197;28;20168;-56
2023/11/16 03:48:44;;;;;;;4.57;2.83;;;;;;;;;;5069705;28;20180;-56
2023/11/16 03:51:13;;;;;;;9.37;2.60;;;;;;;;;;5068557;28;20172;-56
2023/11/16 03:53:39;;;;;;;5.73;2.67;;;;;;;;;;5068258;28;20180;-56
2023/11/16 03:56:05;;;;;;;6.17;2.50;;;;;;;;;;5068767;28;20188;-56
2023/11/16 03:58:31;;;;;;;7.10;2.60;;;;;;;;;;5067825;28;20196;-56
2023/11/16 04:00:57;;;;;;;3.97;2.20;;;;;;;;;;5068287;28;20334;-56
2023/11/16 04:03:23;;;;;;;8.80;2.73;;;;;;;;;;5071136;28;20290;-56
2023/11/16 04:05:49;;;;;;;7.33;2.90;;;;;;;;;;5070963;28;20541;-57
2023/11/16 04:08:15;;;;;;;9.80;3.57;;;;;;;;;;5067185;28;20652;-56
2023/11/16 04:10:41;;;;;;;3.23;2.30;;;;;;;;;;5068189;28;20234;-56
2023/11/16 04:13:08;;;;;;;9.37;3.07;;;;;;;;;;5069261;28;20183;-56
2023/11/16 04:15:34;;;;;;;7.13;3.07;;;;;;;;;;5067986;28;20519;-56
2023/11/16 04:18:00;;;;;;;4.93;3.07;;;;;;;;;;5068761;28;20226;-56
2023/11/16 04:20:27;;;;;;;8.83;3.03;;;;;;;;;;5067918;28;20184;-57
2023/11/16 04:22:53;;;;;;;4.43;2.60;;;;;;;;;;5068289;28;20196;-56
2023/11/16 04:25:25;;;;;;;8.87;3.37;;;;;;;;;;5066457;28;20177;-56
2023/11/16 04:27:51;;;;;;;6.77;2.87;;;;;;;;;;5068628;28;20187;-56
2023/11/16 04:30:21;;;;;;;4.83;2.60;;;;;;;;;;5067632;28;20195;-56
2023/11/16 04:32:47;;;;;;;8.57;2.37;;;;;;;;;;5068033;28;20220;-56
2023/11/16 04:35:15;;;;;;;10.10;3.20;;;;;;;;;;5069985;28;20207;-56
2023/11/16 04:37:41;;;;;;;9.53;2.87;;;;;;;;;;5066499;28;20263;-56
2023/11/16 04:40:13;;;;;;;11.33;3.50;;;;;;;;;;5067967;28;20199;-56
2023/11/16 04:42:41;;;;;;;8.33;2.87;;;;;;;;;;5067424;28;20196;-54
2023/11/16 04:45:11;;;;;;;5.43;2.50;;;;;;;;;;5067169;28;20223;-56
2023/11/16 04:47:37;;;;;;;4.43;3.17;;;;;;;;;;5067906;28;20565;-57
2023/11/16 04:50:06;;;;;;;8.63;2.20;;;;;;;;;;5066791;28;20191;-56
2023/11/16 04:52:34;;;;;;;8.03;3.30;;;;;;;;;;5065455;28;20181;-56
2023/11/16 04:55:00;;;;;;;6.07;3.03;;;;;;;;;;5066659;28;20172;-56
2023/11/16 04:57:26;;;;;;;5.30;2.50;;;;;;;;;;5068580;28;20262;-56
2023/11/16 04:59:55;;;;;;;8.33;2.87;;;;;;;;;;5068269;28;20188;-56
2023/11/16 05:02:22;;;;;;;7.43;3.33;;;;;;;;;;5067243;28;20724;-57
2023/11/16 05:04:49;;;;;;;5.70;2.50;;;;;;;;;;5069018;28;20176;-56
2023/11/16 05:07:15;;;;;;;6.70;2.60;;;;;;;;;;5067548;28;20176;-56
2023/11/16 05:09:41;;;;;;;7.33;2.73;;;;;;;;;;5065470;28;20604;-56
2023/11/16 05:12:08;;;;;;;5.07;2.40;;;;;;;;;;5068465;28;20636;-56
2023/11/16 05:14:34;;;;;;;6.30;2.90;;;;;;;;;;5067866;28;20172;-57
2023/11/16 05:17:01;;;;;;;4.73;2.40;;;;;;;;;;5067292;28;20655;-56
2023/11/16 05:19:27;;;;;;;7.13;2.70;;;;;;;;;;5064493;28;20532;-57
2023/11/16 05:21:53;;;;;;;5.17;3.23;;;;;;;;;;5068194;28;20176;-56
2023/11/16 05:24:20;;;;;;;6.23;2.50;;;;;;;;;;5067114;28;20185;-56
2023/11/16 05:26:46;;;;;;;6.13;3.30;;;;;;;;;;5068183;28;20275;-57
2023/11/16 05:29:12;;;;;;;6.57;3.17;;;;;;;;;;5066687;28;20180;-57
2023/11/16 05:31:38;;;;;;;6.03;2.57;;;;;;;;;;5068475;28;20346;-56
2023/11/16 05:34:07;;;;;;;6.90;3.10;;;;;;;;;;5066482;28;20654;-56
2023/11/16 05:36:34;;;;;;;6.20;2.53;;;;;;;;;;5067607;28;20196;-57
2023/11/16 05:39:00;;;;;;;10.40;2.33;;;;;;;;;;5049764;28;20180;-55
2023/11/16 05:41:27;;;;;;;3.57;2.60;;;;;;;;;;5067812;28;20230;-57
2023/11/16 05:43:53;;;;;;;3.50;2.20;;;;;;;;;;5065410;28;20262;-56
2023/11/16 05:46:19;;;;;;;8.47;2.80;;;;;;;;;;5066409;28;20172;-56
2023/11/16 05:48:46;;;;;;;6.13;2.43;;;;;;;;;;5066516;28;20208;-56
2023/11/16 05:51:12;;;;;;;5.40;2.60;;;;;;;;;;5067906;28;20238;-56
2023/11/16 05:53:38;;;;;;;8.80;3.27;;;;;;;;;;5064323;28;20181;-55
2023/11/16 05:56:04;;;;;;;3.40;2.60;;;;;;;;;;5066030;28;20792;-54
2023/11/16 05:58:30;;;;;;;3.97;2.40;;;;;;;;;;5064878;28;20600;-55
2023/11/16 06:00:56;;;;;;;4.90;2.50;;;;;;;;;;5066338;28;20701;-55
2023/11/16 06:03:27;;;;;;;9.83;2.70;;;;;;;;;;5065933;28;20661;-55
2023/11/16 06:05:59;;;;;;;7.03;2.70;;;;;;;;;;5066575;28;20168;-54
2023/11/16 06:08:26;;;;;;;8.47;2.97;;;;;;;;;;5066245;28;20173;-54
2023/11/16 06:10:52;;;;;;;6.13;2.57;;;;;;;;;;5066790;28;20185;-55
2023/11/16 06:13:26;;;;;;;5.23;2.80;;;;;;;;;;5067931;28;20180;-54
2023/11/16 06:15:52;;;;;;;5.43;2.83;;;;;;;;;;5065505;28;20188;-54
2023/11/16 06:18:19;;;;;;;7.20;2.80;;;;;;;;;;5066281;28;20168;-55
2023/11/16 06:20:45;;;;;;;6.27;2.80;;;;;;;;;;5067239;28;20187;-54
2023/11/16 06:23:12;;;;;;;5.00;3.17;;;;;;;;;;5067576;28;20211;-54
2023/11/16 06:25:38;;;;;;;8.30;3.27;;;;;;;;;;5065280;28;20184;-55
2023/11/16 06:28:04;;;;;;;5.90;3.43;;;;;;;;;;5064778;28;20706;-54
2023/11/16 06:30:30;;;;;;;5.80;3.33;;;;;;;;;;5066046;28;20206;-54
2023/11/16 06:32:56;;;;;;;6.47;2.93;;;;;;;;;;5063467;28;20572;-55
2023/11/16 06:35:22;;;;;;;7.90;3.17;;;;;;;;;;5062115;28;20192;-55
2023/11/16 06:37:48;;;;;;;9.77;2.87;;;;;;;;;;5066728;28;20211;-54
2023/11/16 06:40:14;;;;;;;10.93;3.13;;;;;;;;;;5066698;28;20531;-54
2023/11/16 06:42:41;;;;;;;7.07;2.90;;;;;;;;;;5064940;28;20204;-55
2023/11/16 06:45:07;;;;;;;4.60;2.70;;;;;;;;;;5064799;28;20180;-54
2023/11/16 06:47:34;;;;;;;4.93;2.90;;;;;;;;;;5065857;28;20651;-54
2023/11/16 06:50:02;;;;;;;10.23;2.63;;;;;;;;;;5065775;28;20181;-54
2023/11/16 06:52:28;;;;;;;5.23;2.87;;;;;;;;;;5062104;28;20233;-55
2023/11/16 06:54:54;;;;;;;7.73;3.20;;;;;;;;;;5049846;28;20192;-55
2023/11/16 06:57:26;;;;;;;10.27;3.00;;;;;;;;;;5068162;28;20188;-55
2023/11/16 06:59:53;;;;;;;5.77;2.87;;;;;;;;;;5059426;28;20579;-55
2023/11/16 07:02:22;;;;;;;4.33;2.30;;;;;;;;;;5064090;28;20772;-55
2023/11/16 07:04:48;;;;;;;4.23;2.57;;;;;;;;;;5065483;28;20271;-54
2023/11/16 07:07:15;;;;;;;9.27;2.90;;;;;;;;;;5067667;28;20223;-55
2023/11/16 07:09:47;;;;;;;5.03;2.63;;;;;;;;;;5068128;28;20254;-54
2023/11/16 07:12:14;;;;;;;9.00;2.90;;;;;;;;;;5047122;28;20644;-55
2023/11/16 07:14:41;;;;;;;7.63;2.73;;;;;;;;;;5066726;28;20608;-55
2023/11/16 07:17:10;;;;;;;4.57;2.70;;;;;;;;;;5065271;28;20640;-52
2023/11/16 07:19:37;;;;;;;9.97;3.20;;;;;;;;;;5045795;28;20644;-51
2023/11/16 07:22:03;;;;;;;5.53;2.50;;;;;;;;;;5067848;28;20172;-51
2023/11/16 07:24:29;;;;;;;6.73;2.70;;;;;;;;;;5068146;28;20851;-52
2023/11/16 07:26:56;;;;;;;5.97;2.63;;;;;;;;;;5069454;28;20731;-51
2023/11/16 07:29:23;;;;;;;7.67;3.27;;;;;;;;;;5069634;28;20218;-51
2023/11/16 07:31:49;;;;;;;6.67;3.00;;;;;;;;;;5070235;28;20251;-51
2023/11/16 07:34:18;;;;;;;3.47;3.00;;;;;;;;;;5069921;28;20234;-51
2023/11/16 07:36:44;;;;;;;5.93;2.53;;;;;;;;;;5069714;28;20268;-52
2023/11/16 07:39:12;;;;;;;5.70;2.77;;;;;;;;;;5069422;28;20271;-52
2023/11/16 07:41:39;;;;;;;6.87;2.50;;;;;;;;;;5068963;28;20630;-51
2023/11/16 07:44:06;;;;;;;6.43;2.83;;;;;;;;;;5062969;28;20196;-52
2023/11/16 07:46:32;;;;;;;6.53;2.90;;;;;;;;;;5065142;28;20636;-52
2023/11/16 07:48:58;;;;;;;6.40;2.40;;;;;;;;;;5064883;28;20230;-51
2023/11/16 07:51:24;;;;;;;6.70;2.60;;;;;;;;;;5069135;28;20176;-51
2023/11/16 07:53:53;;;;;;;3.93;2.70;;;;;;;;;;5069885;28;20181;-52
2023/11/16 07:56:20;;;;;;;5.10;3.30;;;;;;;;;;5067526;28;20188;-51
2023/11/16 07:58:51;;;;;;;4.47;2.47;;;;;;;;;;5066476;28;20208;-52
2023/11/16 08:01:21;;;;;;;5.40;2.67;;;;;;;;;;5061399;28;20279;-51
2023/11/16 08:03:55;;;;;;;10.73;4.00;;;;;;;;;;5067807;28;20369;-51
2023/11/16 08:06:22;;;;;;;6.50;2.87;;;;;;;;;;5067275;28;20188;-51
2023/11/16 08:08:49;;;;;;;6.30;2.70;;;;;;;;;;5063981;28;20563;-52
2023/11/16 08:11:16;;;;;;;9.10;3.93;;;;;;;;;;5067042;28;20259;-52
2023/11/16 08:13:48;;;;;;;6.80;2.80;;;;;;;;;;5065467;28;20270;-54
2023/11/16 08:16:20;;;;;;;7.17;3.37;;;;;;;;;;5063863;28;20655;-54
2023/11/16 08:18:47;;;;;;;5.50;3.00;;;;;;;;;;5064463;28;20168;-54
2023/11/16 08:21:13;;;;;;;5.57;2.93;;;;;;;;;;5067350;28;20177;-54
2023/11/16 08:23:43;;;;;;;4.17;2.70;;;;;;;;;;5068834;28;20257;-54
2023/11/16 08:26:10;;;;;;;6.23;2.30;;;;;;;;;;5067908;28;20181;-54
2023/11/16 08:28:44;;;;;;;4.83;2.70;;;;;;;;;;5067406;28;20552;-54
2023/11/16 08:31:12;;;;;;;4.03;2.40;;;;;;;;;;5066565;28;20697;-54
2023/11/16 08:33:38;;;;;;;4.90;2.70;;;;;;;;;;5048830;28;20172;-54
2023/11/16 08:36:04;;;;;;;5.20;3.07;;;;;;;;;;5071436;28;20195;-54
2023/11/16 08:38:31;;;;;;;4.97;2.53;;;;;;;;;;5069311;28;20184;-55
2023/11/16 08:41:00;;;;;;;4.63;2.57;;;;;;;;;;5069586;28;20176;-54
2023/11/16 08:43:27;;;;;;;7.40;2.83;;;;;;;;;;5044415;28;20204;-54
2023/11/16 08:45:57;;;;;;;7.03;3.23;;;;;;;;;;5069929;28;20263;-54
2023/11/16 08:48:32;;;;;;;5.17;2.57;;;;;;;;;;5069603;28;20179;-54
2023/11/16 08:51:05;;;;;;;5.27;2.80;;;;;;;;;;5070205;28;20173;-54
2023/11/16 08:53:35;;;;;;;8.40;3.10;;;;;;;;;;5068003;28;20176;-54
2023/11/16 08:56:05;;;;;;;5.47;2.73;;;;;;;;;;5064357;28;20177;-54
2023/11/16 08:58:36;;;;;;;7.20;3.03;;;;;;;;;;5066778;28;20875;-54
2023/11/16 09:01:02;;;;;;;3.77;2.97;;;;;;;;;;5064534;28;20195;-54
2023/11/16 09:03:29;;;;;;;7.30;3.57;;;;;;;;;;5066677;28;20227;-54
2023/11/16 09:05:55;;;;;;;4.33;2.60;;;;;;;;;;5066640;28;20887;-54
2023/11/16 09:08:23;;;;;;;5.77;2.73;;;;;;;;;;5069049;28;20486;-54
2023/11/16 09:10:50;;;;;;;4.30;2.87;;;;;;;;;;5069240;28;20690;-54
2023/11/16 09:13:16;;;;;;;6.57;2.80;;;;;;;;;;5069818;28;20693;-54
2023/11/16 09:15:43;;;;;;;5.47;3.10;;;;;;;;;;5069601;28;20634;-54
2023/11/16 09:18:10;;;;;;;7.20;2.80;;;;;;;;;;5069490;28;20437;-54
2023/11/16 09:20:37;;;;;;;6.63;2.90;;;;;;;;;;5077881;28;20515;-54
2023/11/16 09:23:06;;;;;;;4.97;2.93;;;;;;;;;;5069408;28;20203;-54
2023/11/16 09:25:34;;;;;;;5.00;2.80;;;;;;;;;;5067805;28;20191;-54
2023/11/16 09:28:01;;;;;;;6.30;2.80;;;;;;;;;;5065825;28;20644;-54
2023/11/16 09:30:27;;;;;;;5.73;3.07;;;;;;;;;;5069003;28;20187;-54
2023/11/16 09:33:02;;;;;;;5.30;3.37;;;;;;;;;;5067549;28;20253;-54
2023/11/16 09:35:29;;;;;;;6.57;3.20;;;;;;;;;;5066614;28;20199;-54
2023/11/16 09:37:56;;;;;;;5.37;3.10;;;;;;;;;;5067846;28;20636;-54
2023/11/16 09:40:30;;;;;;;6.03;3.20;;;;;;;;;;5066418;28;20233;-54
2023/11/16 09:42:57;;;;;;;6.33;2.73;;;;;;;;;;5066816;28;20203;-55
2023/11/16 09:45:31;;;;;;;6.27;2.70;;;;;;;;;;5066413;28;20176;-54
2023/11/16 09:48:01;;;;;;;9.07;2.70;;;;;;;;;;5066615;28;20182;-54
2023/11/16 09:50:31;;;;;;;7.70;3.40;;;;;;;;;;5067138;28;20175;-54
2023/11/16 09:53:03;;;;;;;4.93;2.83;;;;;;;;;;5065148;28;20184;-54
2023/11/16 09:55:32;;;;;;;6.33;2.40;;;;;;;;;;5064011;28;20403;-54
2023/11/16 09:58:08;;;;;;;4.67;3.00;;;;;;;;;;5067952;28;20781;-54
2023/11/16 10:00:35;;;;;;;8.30;3.70;;;;;;;;;;5066117;28;20586;-54
2023/11/16 10:03:05;;;;;;;5.27;2.73;;;;;;;;;;5066349;28;20286;-54
2023/11/16 10:05:35;;;;;;;7.27;2.87;;;;;;;;;;5065814;28;20631;-53
2023/11/16 10:08:04;;;;;;;7.70;3.13;;;;;;;;;;5066125;28;20176;-53
2023/11/16 10:10:33;;;;;;;4.40;2.83;;;;;;;;;;5067348;28;20652;-54
2023/11/16 10:12:59;;;;;;;5.87;3.13;;;;;;;;;;5065639;28;20275;-53
2023/11/16 10:15:25;;;;;;;7.73;2.90;;;;;;;;;;5066187;28;20234;-53
2023/11/16 10:17:52;;;;;;;6.93;2.37;;;;;;;;;;5068150;28;20180;-55
2023/11/16 10:20:20;;;;;;;4.67;2.63;;;;;;;;;;5067415;28;20636;-54
2023/11/16 10:22:50;;;;;;;8.57;2.70;;;;;;;;;;5064704;28;20215;-54
2023/11/16 10:25:17;;;;;;;6.13;2.93;;;;;;;;;;5064383;28;20294;-53
2023/11/16 10:27:44;;;;;;;3.47;2.70;;;;;;;;;;5066462;28;20203;-54
2023/11/16 10:30:15;;;;;;;5.00;2.40;;;;;;;;;;5065805;28;20176;-54
2023/11/16 10:32:47;;;;;;;4.90;2.60;;;;;;;;;;5064408;28;20703;-54
2023/11/16 10:35:14;;;;;;;8.47;2.90;;;;;;;;;;5065420;28;20239;-54
2023/11/16 10:37:43;;;;;;;9.37;2.83;;;;;;;;;;5066008;28;20184;-53
2023/11/16 10:40:10;;;;;;;4.03;2.70;;;;;;;;;;5070291;28;20188;-54
2023/11/16 10:42:38;;;;;;;8.43;3.27;;;;;;;;;;5069633;28;20800;-53
2023/11/16 10:45:05;;;;;;;3.10;2.60;;;;;;;;;;5065488;28;20254;-53
2023/11/16 10:47:32;;;;;;;5.10;3.07;;;;;;;;;;5070407;28;20187;-53
2023/11/16 10:49:58;;;;;;;5.80;2.63;;;;;;;;;;5066896;28;20611;-53
2023/11/16 10:52:26;;;;;;;7.27;3.23;;;;;;;;;;5069585;28;20173;-53
2023/11/16 10:54:55;;;;;;;7.27;2.97;;;;;;;;;;5069419;28;20741;-54
2023/11/16 10:57:22;;;;;;;6.53;2.97;;;;;;;;;;5071174;28;20180;-54
2023/11/16 10:59:50;;;;;;;9.03;3.37;;;;;;;;;;5070205;28;20267;-54
2023/11/16 11:02:17;;;;;;;8.57;2.97;;;;;;;;;;5069646;28;20188;-54
2023/11/16 11:04:43;;;;;;;4.40;2.60;;;;;;;;;;5069440;28;20261;-53
2023/11/16 11:07:12;;;;;;;4.23;2.70;;;;;;;;;;5069777;28;20217;-53
2023/11/16 11:09:42;;;;;;;7.60;3.00;;;;;;;;;;5065674;28;20177;-54
2023/11/16 11:12:13;;;;;;;6.63;2.60;;;;;;;;;;5069352;28;20665;-54
2023/11/16 11:14:46;;;;;;;5.17;2.70;;;;;;;;;;5067995;28;20640;-53
2023/11/16 11:17:18;;;;;;;6.10;2.87;;;;;;;;;;5070820;28;20204;-53
2023/11/16 11:19:54;;;;;;;3.93;2.53;;;;;;;;;;5066585;28;20173;-53
2023/11/16 11:22:24;;;;;;;8.97;3.80;;;;;;;;;;5066858;28;20181;-53
2023/11/16 11:24:50;;;;;;;5.67;2.80;;;;;;;;;;5069047;28;20632;-52
2023/11/16 11:27:16;;;;;;;5.87;2.87;;;;;;;;;;5050403;28;20177;-53
2023/11/16 11:29:42;;;;;;;6.47;3.10;;;;;;;;;;5070472;28;20242;-52
2023/11/16 11:32:14;;;;;;;6.73;2.90;;;;;;;;;;5068342;28;20277;-53
2023/11/16 11:34:40;;;;;;;6.43;2.93;;;;;;;;;;5067868;28;20216;-53
2023/11/16 11:37:10;;;;;;;5.97;2.90;;;;;;;;;;5068972;28;20188;-52
2023/11/16 11:39:46;;;;;;;7.40;2.90;;;;;;;;;;5069009;28;20185;-52
2023/11/16 11:42:16;;;;;;;6.17;3.27;;;;;;;;;;5069482;28;20504;-53
2023/11/16 11:44:53;;;;;;;4.47;2.60;;;;;;;;;;5066564;28;20180;-52
2023/11/16 11:47:20;;;;;;;5.33;3.10;;;;;;;;;;5068401;28;20176;-53
2023/11/16 11:49:47;;;;;;;4.07;2.87;;;;;;;;;;5067940;28;20176;-53
2023/11/16 11:52:13;;;;;;;11.30;3.07;;;;;;;;;;5068606;28;20185;-52
2023/11/16 11:54:41;;;;;;;3.63;2.43;;;;;;;;;;5069473;28;20250;-52
2023/11/16 11:57:07;;;;;;;4.23;2.87;;;;;;;;;;5068597;28;20264;-53
2023/11/16 11:59:36;;;;;;;7.20;2.77;;;;;;;;;;5066749;28;20564;-52
2023/11/16 12:02:09;;;;;;;5.83;2.90;;;;;;;;;;5066273;28;20184;-52
2023/11/16 12:04:35;;;;;;;6.70;3.30;;;;;;;;;;5068895;28;20663;-53
2023/11/16 12:07:07;;;;;;;6.20;2.50;;;;;;;;;;5066082;28;20259;-53
2023/11/16 12:09:33;;;;;;;4.33;2.40;;;;;;;;;;5068693;28;20180;-53
2023/11/16 12:12:03;;;;;;;3.83;2.17;;;;;;;;;;5067220;28;20647;-52
2023/11/16 12:14:33;;;;;;;4.87;2.57;;;;;;;;;;5066714;28;20216;-52
2023/11/16 12:16:59;;;;;;;6.53;3.47;;;;;;;;;;5065949;28;20181;-52
2023/11/16 12:19:27;;;;;;;5.33;2.77;;;;;;;;;;5064788;28;20587;-52
2023/11/16 12:21:53;;;;;;;4.80;2.63;;;;;;;;;;5066510;28;20234;-52
2023/11/16 12:24:23;;;;;;;5.70;2.57;;;;;;;;;;5067737;28;20204;-52
2023/11/16 12:26:49;;;;;;;7.13;3.03;;;;;;;;;;5067938;28;20184;-52
2023/11/16 12:29:15;;;;;;;6.17;2.43;;;;;;;;;;5069683;28;20175;-53
2023/11/16 12:31:41;;;;;;;4.63;2.80;;;;;;;;;;5033528;28;1049678;-53
2023/11/16 12:34:07;;;;;;;7.03;3.43;;;;;;;;;;5070400;28;20169;-52
2023/11/16 12:36:35;;;;;;;7.57;4.60;;;;;;;;;;5078053;28;20183;-52
2023/11/16 12:39:01;;;;;;;5.30;2.87;;;;;;;;;;5067800;28;20176;-52
2023/11/16 12:41:28;;;;;;;7.53;3.03;;;;;;;;;;5065982;28;20652;-52
2023/11/16 12:43:54;;;;;;;9.37;3.43;;;;;;;;;;5064557;28;20231;-52
2023/11/16 12:46:20;;;;;;;6.57;3.43;;;;;;;;;;5067375;28;20598;-53
2023/11/16 12:48:46;;;;;;;9.00;3.97;;;;;;;;;;5066676;28;20184;-53
2023/11/16 12:51:18;;;;;;;7.47;3.20;;;;;;;;;;5067875;28;20202;-52
2023/11/16 12:53:45;;;;;;;7.60;3.40;;;;;;;;;;5066345;28;20177;-51
2023/11/16 12:56:15;;;;;;;6.23;3.60;;;;;;;;;;5068810;28;20184;-51
2023/11/16 12:58:41;;;;;;;7.77;3.67;;;;;;;;;;5064953;28;20869;-51
2023/11/16 13:01:07;;;;;;;5.27;2.87;;;;;;;;;;5065778;28;20634;-50
2023/11/16 13:03:33;;;;;;;8.60;3.27;;;;;;;;;;5069940;28;20214;-51
2023/11/16 13:05:59;;;;;;;8.37;3.20;;;;;;;;;;5059145;28;20717;-51
2023/11/16 13:08:26;;;;;;;5.03;2.70;;;;;;;;;;5053420;28;20222;-51
2023/11/16 13:10:52;;;;;;;5.43;2.93;;;;;;;;;;5056456;28;20279;-51
2023/11/16 13:13:18;;;;;;;8.57;3.20;;;;;;;;;;5067929;28;20210;-50
2023/11/16 13:15:44;;;;;;;8.43;3.27;;;;;;;;;;5067147;28;20212;-51
2023/11/16 13:18:12;;;;;;;5.90;4.40;;;;;;;;;;5060994;28;20570;-51
2023/11/16 13:20:38;;;;;;;5.90;3.40;;;;;;;;;;5068447;28;20200;-51
2023/11/16 13:23:05;;;;;;;5.97;2.93;;;;;;;;;;5068035;28;20647;-50
2023/11/16 13:25:31;;;;;;;3.80;2.67;;;;;;;;;;5068611;28;20616;-51
2023/11/16 13:27:57;;;;;;;5.17;2.70;;;;;;;;;;5069442;28;20180;-50
2023/11/16 13:30:23;;;;;;;7.07;3.40;;;;;;;;;;5068678;28;20173;-51
2023/11/16 13:32:50;;;;;;;6.30;2.90;;;;;;;;;;5068046;28;20224;-51
2023/11/16 13:35:16;;;;;;;8.17;3.53;;;;;;;;;;5069897;28;20173;-51
2023/11/16 13:37:42;;;;;;;7.43;3.73;;;;;;;;;;5069242;28;20183;-50
2023/11/16 13:40:11;;;;;;;6.57;3.33;;;;;;;;;;5068112;28;20640;-51
2023/11/16 13:42:41;;;;;;;7.03;3.10;;;;;;;;;;5066356;28;20247;-51
2023/11/16 13:45:12;;;;;;;3.53;2.93;;;;;;;;;;5064839;28;20179;-51
2023/11/16 13:47:38;;;;;;;5.80;2.83;;;;;;;;;;5066040;28;20179;-51
2023/11/16 13:50:06;;;;;;;5.37;3.43;;;;;;;;;;5064821;28;20660;-51
2023/11/16 13:52:35;;;;;;;5.43;2.97;;;;;;;;;;5065580;28;20184;-51
2023/11/16 13:55:01;;;;;;;6.17;3.07;;;;;;;;;;5067333;28;20188;-51
2023/11/16 13:57:27;;;;;;;5.27;3.20;;;;;;;;;;5066875;28;20250;-51
2023/11/16 13:59:53;;;;;;;7.00;3.60;;;;;;;;;;5067835;28;20174;-50
2023/11/16 14:02:19;;;;;;;7.73;3.90;;;;;;;;;;5067654;28;20325;-50
2023/11/16 14:04:45;;;;;;;9.70;3.30;;;;;;;;;;5064339;28;20299;-53
2023/11/16 14:07:13;;;;;;;6.93;3.37;;;;;;;;;;5072824;28;20299;-52
2023/11/16 14:09:40;;;;;;;6.60;3.40;;;;;;;;;;5074519;28;20211;-53
2023/11/16 14:12:07;;;;;;;3.67;3.30;;;;;;;;;;5068819;28;20180;-55
2023/11/16 14:14:33;;;;;;;4.77;3.10;;;;;;;;;;5063594;28;20690;-53
2023/11/16 14:16:59;;;;;;;7.20;3.80;;;;;;;;;;5067623;28;20216;-52
2023/11/16 14:19:27;;;;;;;5.27;3.80;;;;;;;;;;5066206;28;20877;-52
2023/11/16 14:21:53;;;;;;;5.87;3.40;;;;;;;;;;5066914;28;20620;-53
2023/11/16 14:24:19;;;;;;;5.80;3.87;;;;;;;;;;5067528;28;20519;-53
2023/11/16 14:26:46;;;;;;;5.67;3.37;;;;;;;;;;5067704;28;20211;-52
2023/11/16 14:29:12;;;;;;;4.70;3.20;;;;;;;;;;5065620;28;20173;-53
2023/11/16 14:31:38;;;;;;;5.60;3.63;;;;;;;;;;5068361;28;20203;-53
2023/11/16 14:34:04;;;;;;;5.70;4.13;;;;;;;;;;5067524;28;20629;-52
2023/11/16 14:36:31;;;;;;;6.97;3.67;;;;;;;;;;5065885;28;20698;-52
2023/11/16 14:38:57;;;;;;;4.73;3.33;;;;;;;;;;5067359;28;20180;-53
2023/11/16 14:41:24;;;;;;;6.50;4.43;;;;;;;;;;5062889;28;20176;-53
2023/11/16 14:43:50;;;;;;;10.50;5.43;;;;;;;;;;5071559;28;20200;-53
2023/11/16 14:46:19;;;;;;;9.40;4.83;;;;;;;;;;5067726;28;20208;-53